Time,TemperatureF,DewpointF,PressureIn,WindDirection,WindDirectionDegrees,WindSpeedMPH,WindSpeedGustMPH,Humidity,HourlyPrecipIn,Conditions,Clouds,dailyrainin,SolarRadiationWatts/m^2,SoftwareType,DateUTC
2013-11-27 00:01:00,29.8,27.0,30.46,WNW,290,0.0,1.0,88,0.00,,,0.00,0,weatherlink.com 1.10,2013-11-26 23:01:00,
2013-11-27 00:16:00,29.3,26.0,30.46,WNW,290,0.0,0.0,88,0.00,,,0.00,0,weatherlink.com 1.10,2013-11-26 23:16:00,
2013-11-27 00:32:00,28.7,26.0,30.47,WNW,290,0.0,0.0,88,0.00,,,0.00,0,weatherlink.com 1.10,2013-11-26 23:32:00,
2013-11-27 00:47:00,28.3,26.0,30.47,WNW,290,0.0,0.0,90,0.00,,,0.00,0,weatherlink.com 1.10,2013-11-26 23:47:00,
2013-11-27 01:02:00,28.2,26.0,30.46,WNW,290,0.0,0.0,90,0.00,,,0.00,0,weatherlink.com 1.10,2013-11-27 00:02:00,
2013-11-27 01:17:00,28.1,26.0,30.46,West,269,0.0,0.0,90,0.00,,,0.00,0,weatherlink.com 1.10,2013-11-27 00:17:00,
2013-11-27 01:32:00,27.6,25.0,30.46,West,269,0.0,0.0,90,0.00,,,0.00,0,weatherlink.com 1.10,2013-11-27 00:32:00,
2013-11-27 01:47:00,27.1,25.0,30.47,West,269,0.0,0.0,91,0.00,,,0.00,0,weatherlink.com 1.10,2013-11-27 00:47:00,
2013-11-27 02:02:00,26.7,25.0,30.47,West,269,0.0,0.0,91,0.00,,,0.00,0,weatherlink.com 1.10,2013-11-27 01:02:00,
2013-11-27 02:17:00,26.0,24.0,30.47,West,269,0.0,0.0,91,0.00,,,0.00,0,weatherlink.com 1.10,2013-11-27 01:17:00,
2013-11-27 02:32:00,25.6,23.0,30.48,West,269,0.0,0.0,91,0.00,,,0.00,0,weatherlink.com 1.10,2013-11-27 01:32:00,
2013-11-27 02:47:00,25.2,23.0,30.48,WSW,248,0.0,0.0,92,0.00,,,0.00,0,weatherlink.com 1.10,2013-11-27 01:47:00,
2013-11-27 03:02:00,25.1,23.0,30.47,WSW,247,0.0,0.0,92,0.00,,,0.00,0,weatherlink.com 1.10,2013-11-27 02:02:00,
2013-11-27 03:17:00,24.8,23.0,30.47,West,271,0.0,0.0,92,0.00,,,0.00,0,weatherlink.com 1.10,2013-11-27 02:17:00,
2013-11-27 03:32:00,24.7,23.0,30.47,SSE,161,0.0,0.0,92,0.00,,,0.00,0,weatherlink.com 1.10,2013-11-27 02:32:00,
2013-11-27 03:47:00,24.4,22.0,30.47,WSW,242,0.0,0.0,92,0.00,,,0.00,0,weatherlink.com 1.10,2013-11-27 02:47:00,
2013-11-27 04:02:00,24.0,22.0,30.48,WSW,241,0.0,0.0,92,0.00,,,0.00,0,weatherlink.com 1.10,2013-11-27 03:02:00,
2013-11-27 04:17:00,23.7,22.0,30.48,WSW,241,0.0,0.0,92,0.00,,,0.00,0,weatherlink.com 1.10,2013-11-27 03:17:00,
2013-11-27 04:32:00,23.4,22.0,30.48,SSW,200,0.0,0.0,92,0.00,,,0.00,0,weatherlink.com 1.10,2013-11-27 03:32:00,
2013-11-27 04:47:00,23.1,21.0,30.48,WSW,238,0.0,2.0,92,0.00,,,0.00,0,weatherlink.com 1.10,2013-11-27 03:47:00,
2013-11-27 05:02:00,23.0,21.0,30.49,SW,223,0.0,1.0,92,0.00,,,0.00,0,weatherlink.com 1.10,2013-11-27 04:02:00,
2013-11-27 05:17:00,23.0,21.0,30.49,SW,229,0.0,1.0,92,0.00,,,0.00,0,weatherlink.com 1.10,2013-11-27 04:17:00,
2013-11-27 05:32:00,22.9,21.0,30.49,South,189,0.0,0.0,92,0.00,,,0.00,0,weatherlink.com 1.10,2013-11-27 04:32:00,
2013-11-27 05:47:00,22.7,21.0,30.50,South,189,0.0,1.0,92,0.00,,,0.00,0,weatherlink.com 1.10,2013-11-27 04:47:00,
2013-11-27 06:02:00,22.5,21.0,30.50,South,189,0.0,0.0,92,0.00,,,0.00,0,weatherlink.com 1.10,2013-11-27 05:02:00,
2013-11-27 06:17:00,22.4,21.0,30.50,SSW,194,0.0,1.0,92,0.00,,,0.00,0,weatherlink.com 1.10,2013-11-27 05:17:00,
2013-11-27 06:32:00,22.2,20.0,30.50,SSW,194,0.0,0.0,92,0.00,,,0.00,0,weatherlink.com 1.10,2013-11-27 05:32:00,
2013-11-27 06:47:00,22.3,21.0,30.50,SW,221,0.0,1.0,93,0.00,,,0.00,0,weatherlink.com 1.10,2013-11-27 05:47:00,
2013-11-27 07:02:00,22.2,20.0,30.50,SSW,211,0.0,0.0,92,0.00,,,0.00,0,weatherlink.com 1.10,2013-11-27 06:02:00,
2013-11-27 07:17:00,22.2,20.0,30.50,SSW,211,0.0,0.0,92,0.00,,,0.00,0,weatherlink.com 1.10,2013-11-27 06:17:00,
2013-11-27 07:32:00,22.1,20.0,30.49,SSW,213,0.0,0.0,92,0.00,,,0.00,0,weatherlink.com 1.10,2013-11-27 06:32:00,
2013-11-27 07:47:00,22.2,20.0,30.50,WSW,244,0.0,3.0,92,0.00,,,0.00,7,weatherlink.com 1.10,2013-11-27 06:47:00,
2013-11-27 08:02:00,22.4,21.0,30.51,WSW,244,0.0,1.0,92,0.00,,,0.00,14,weatherlink.com 1.10,2013-11-27 07:02:00,
2013-11-27 08:17:00,22.8,21.0,30.51,SW,234,0.0,0.0,92,0.00,,,0.00,19,weatherlink.com 1.10,2013-11-27 07:17:00,
2013-11-27 08:32:00,23.1,21.0,30.51,SW,234,0.0,0.0,92,0.00,,,0.00,26,weatherlink.com 1.10,2013-11-27 07:32:00,
2013-11-27 08:48:00,23.7,22.0,30.51,SW,231,0.0,2.0,92,0.00,,,0.00,42,weatherlink.com 1.10,2013-11-27 07:48:00,
2013-11-27 09:03:00,24.5,22.0,30.51,South,188,1.0,4.0,91,0.00,,,0.00,33,weatherlink.com 1.10,2013-11-27 08:03:00,
2013-11-27 09:18:00,25.7,23.0,30.52,South,184,0.0,3.0,90,0.00,,,0.00,120,weatherlink.com 1.10,2013-11-27 08:18:00,
2013-11-27 09:33:00,27.3,24.0,30.52,WNW,285,0.0,4.0,88,0.00,,,0.00,121,weatherlink.com 1.10,2013-11-27 08:33:00,
2013-11-27 09:48:00,28.3,24.0,30.52,SSW,198,3.0,5.0,83,0.00,,,0.00,188,weatherlink.com 1.10,2013-11-27 08:48:00,
2013-11-27 10:03:00,28.2,24.0,30.52,SW,232,1.0,3.0,84,0.00,,,0.00,70,weatherlink.com 1.10,2013-11-27 09:03:00,
2013-11-27 10:18:00,28.0,24.0,30.52,WSW,238,2.0,5.0,83,0.00,,,0.00,39,weatherlink.com 1.10,2013-11-27 09:18:00,
2013-11-27 10:33:00,28.3,24.0,30.52,South,186,2.0,6.0,84,0.00,,,0.00,40,weatherlink.com 1.10,2013-11-27 09:33:00,
2013-11-27 10:48:00,28.8,24.0,30.52,SSW,200,0.0,5.0,82,0.00,,,0.00,42,weatherlink.com 1.10,2013-11-27 09:48:00,
2013-11-27 11:03:00,30.3,25.0,30.52,SW,230,1.0,3.0,80,0.00,,,0.00,290,weatherlink.com 1.10,2013-11-27 10:03:00,
2013-11-27 11:18:00,31.7,25.0,30.52,WNW,303,0.0,3.0,76,0.00,,,0.00,325,weatherlink.com 1.10,2013-11-27 10:18:00,
2013-11-27 11:33:00,32.4,26.0,30.52,WSW,242,2.0,3.0,76,0.00,,,0.00,322,weatherlink.com 1.10,2013-11-27 10:33:00,
2013-11-27 11:49:00,33.2,25.0,30.51,SW,233,1.0,4.0,73,0.00,,,0.00,323,weatherlink.com 1.10,2013-11-27 10:49:00,
2013-11-27 12:03:00,33.3,26.0,30.52,SW,231,0.0,3.0,73,0.00,,,0.00,327,weatherlink.com 1.10,2013-11-27 11:03:00,
2013-11-27 12:18:00,33.3,26.0,30.51,SW,219,2.0,4.0,74,0.00,,,0.00,329,weatherlink.com 1.10,2013-11-27 11:18:00,
2013-11-27 12:33:00,34.3,25.0,30.50,NNW,331,1.0,6.0,70,0.00,,,0.00,327,weatherlink.com 1.10,2013-11-27 11:33:00,
2013-11-27 12:48:00,34.3,25.0,30.50,WSW,250,4.0,7.0,70,0.00,,,0.00,318,weatherlink.com 1.10,2013-11-27 11:48:00,
2013-11-27 13:03:00,34.7,25.0,30.50,SW,219,2.0,5.0,69,0.00,,,0.00,308,weatherlink.com 1.10,2013-11-27 12:03:00,
2013-11-27 13:18:00,34.8,26.0,30.50,WSW,242,1.0,5.0,69,0.00,,,0.00,302,weatherlink.com 1.10,2013-11-27 12:18:00,
2013-11-27 13:33:00,35.5,26.0,30.49,ENE,71,0.0,5.0,68,0.00,,,0.00,283,weatherlink.com 1.10,2013-11-27 12:33:00,
2013-11-27 13:48:00,35.0,25.0,30.49,South,171,0.0,4.0,66,0.00,,,0.00,167,weatherlink.com 1.10,2013-11-27 12:48:00,
2013-11-27 14:03:00,34.3,24.0,30.48,SSW,202,3.0,6.0,67,0.00,,,0.00,49,weatherlink.com 1.10,2013-11-27 13:03:00,
2013-11-27 14:18:00,33.8,24.0,30.48,South,175,1.0,6.0,68,0.00,,,0.00,42,weatherlink.com 1.10,2013-11-27 13:18:00,
2013-11-27 14:33:00,33.6,24.0,30.48,SSW,207,0.0,5.0,69,0.00,,,0.00,37,weatherlink.com 1.10,2013-11-27 13:33:00,
2013-11-27 14:48:00,33.6,25.0,30.48,SSW,202,1.0,2.0,70,0.00,,,0.00,40,weatherlink.com 1.10,2013-11-27 13:48:00,
2013-11-27 15:03:00,33.3,25.0,30.47,SSW,194,0.0,3.0,71,0.00,,,0.00,25,weatherlink.com 1.10,2013-11-27 14:03:00,
2013-11-27 15:18:00,32.8,25.0,30.47,WSW,248,0.0,1.0,73,0.00,,,0.00,21,weatherlink.com 1.10,2013-11-27 14:18:00,
2013-11-27 15:33:00,32.4,25.0,30.47,SW,215,0.0,2.0,74,0.00,,,0.00,18,weatherlink.com 1.10,2013-11-27 14:33:00,
2013-11-27 15:48:00,31.9,25.0,30.47,SW,225,0.0,2.0,76,0.00,,,0.00,11,weatherlink.com 1.10,2013-11-27 14:48:00,
2013-11-27 16:03:00,31.3,25.0,30.47,SW,214,0.0,2.0,77,0.00,,,0.00,5,weatherlink.com 1.10,2013-11-27 15:03:00,
2013-11-27 16:18:00,30.5,25.0,30.46,SW,222,0.0,0.0,79,0.00,,,0.00,0,weatherlink.com 1.10,2013-11-27 15:18:00,
2013-11-27 16:33:00,29.8,24.0,30.46,SW,226,0.0,2.0,79,0.00,,,0.00,0,weatherlink.com 1.10,2013-11-27 15:33:00,
2013-11-27 16:48:00,29.2,24.0,30.46,SW,226,0.0,1.0,81,0.00,,,0.00,0,weatherlink.com 1.10,2013-11-27 15:48:00,
2013-11-27 17:03:00,28.9,24.0,30.47,SW,226,0.0,1.0,81,0.00,,,0.00,0,weatherlink.com 1.10,2013-11-27 16:03:00,
2013-11-27 17:18:00,28.6,24.0,30.47,SW,226,0.0,1.0,82,0.00,,,0.00,0,weatherlink.com 1.10,2013-11-27 16:18:00,
2013-11-27 17:33:00,28.3,24.0,30.46,SW,226,0.0,0.0,82,0.00,,,0.00,0,weatherlink.com 1.10,2013-11-27 16:33:00,
2013-11-27 17:48:00,27.9,23.0,30.47,SW,226,0.0,1.0,82,0.00,,,0.00,0,weatherlink.com 1.10,2013-11-27 16:48:00,
2013-11-27 18:03:00,27.8,23.0,30.46,SW,226,0.0,0.0,82,0.00,,,0.00,0,weatherlink.com 1.10,2013-11-27 17:03:00,
2013-11-27 18:18:00,27.4,23.0,30.47,SW,226,0.0,1.0,83,0.00,,,0.00,0,weatherlink.com 1.10,2013-11-27 17:18:00,
2013-11-27 18:33:00,27.2,23.0,30.47,SW,225,0.0,0.0,84,0.00,,,0.00,0,weatherlink.com 1.10,2013-11-27 17:33:00,
2013-11-27 18:48:00,26.9,23.0,30.47,SW,226,0.0,0.0,85,0.00,,,0.00,0,weatherlink.com 1.10,2013-11-27 17:48:00,
2013-11-27 19:03:00,26.6,23.0,30.46,SW,225,0.0,0.0,85,0.00,,,0.00,0,weatherlink.com 1.10,2013-11-27 18:03:00,
2013-11-27 19:18:00,26.5,23.0,30.46,SW,225,0.0,2.0,85,0.00,,,0.00,0,weatherlink.com 1.10,2013-11-27 18:18:00,
2013-11-27 19:34:00,26.7,23.0,30.46,SW,225,0.0,1.0,85,0.00,,,0.00,0,weatherlink.com 1.10,2013-11-27 18:34:00,
2013-11-27 19:49:00,26.7,23.0,30.46,SSW,208,0.0,1.0,86,0.00,,,0.00,0,weatherlink.com 1.10,2013-11-27 18:49:00,
2013-11-27 20:04:00,27.5,24.0,30.47,SW,220,0.0,3.0,85,0.00,,,0.00,0,weatherlink.com 1.10,2013-11-27 19:04:00,
2013-11-27 20:19:00,28.5,24.0,30.46,SSE,165,0.0,4.0,84,0.00,,,0.00,0,weatherlink.com 1.10,2013-11-27 19:19:00,
2013-11-27 20:34:00,28.9,24.0,30.46,SW,223,0.0,3.0,83,0.00,,,0.00,0,weatherlink.com 1.10,2013-11-27 19:34:00,
2013-11-27 20:49:00,29.2,24.0,30.46,SW,217,0.0,2.0,82,0.00,,,0.00,0,weatherlink.com 1.10,2013-11-27 19:49:00,
2013-11-27 21:04:00,29.3,24.0,30.46,WSW,242,1.0,4.0,80,0.00,,,0.00,0,weatherlink.com 1.10,2013-11-27 20:04:00,
2013-11-27 21:19:00,29.4,24.0,30.46,SSE,168,1.0,4.0,80,0.00,,,0.00,0,weatherlink.com 1.10,2013-11-27 20:19:00,
2013-11-27 21:34:00,29.4,24.0,30.46,SW,232,1.0,4.0,79,0.00,,,0.00,0,weatherlink.com 1.10,2013-11-27 20:34:00,
2013-11-27 21:49:00,29.5,24.0,30.46,SSW,202,3.0,7.0,79,0.00,,,0.00,0,weatherlink.com 1.10,2013-11-27 20:49:00,
2013-11-27 22:04:00,29.4,23.0,30.46,SSW,196,2.0,6.0,78,0.00,,,0.00,0,weatherlink.com 1.10,2013-11-27 21:04:00,
2013-11-27 22:19:00,29.2,23.0,30.45,SW,229,2.0,6.0,79,0.00,,,0.00,0,weatherlink.com 1.10,2013-11-27 21:19:00,
2013-11-27 22:34:00,29.3,23.0,30.45,South,188,1.0,4.0,78,0.00,,,0.00,0,weatherlink.com 1.10,2013-11-27 21:34:00,
2013-11-27 22:49:00,29.5,23.0,30.45,SW,236,0.0,5.0,78,0.00,,,0.00,0,weatherlink.com 1.10,2013-11-27 21:49:00,
2013-11-27 23:04:00,29.8,23.0,30.45,SW,216,0.0,4.0,77,0.00,,,0.00,0,weatherlink.com 1.10,2013-11-27 22:04:00,
2013-11-27 23:19:00,30.1,24.0,30.45,SW,220,1.0,4.0,77,0.00,,,0.00,0,weatherlink.com 1.10,2013-11-27 22:19:00,
2013-11-27 23:34:00,30.2,24.0,30.45,South,190,1.0,5.0,77,0.00,,,0.00,0,weatherlink.com 1.10,2013-11-27 22:34:00,
2013-11-27 23:49:00,30.4,24.0,30.44,SSE,155,4.0,6.0,76,0.00,,,0.00,0,weatherlink.com 1.10,2013-11-27 22:49:00,